Latest Weather Observations for Ferny Creek

IDV60901

Issued at 2:25 pm EST Thursday 21 August 2014 (issued every 10 minutes, with the page automatically refreshed every 10 minutes)

About weather observations | Map of Melbourne area stations | Latest observations for Melbourne area | Other Formats
Station Details ID: 086266 Name: FERNY CREEK Lat: -37.87 Lon: 145.35 Height: 512.9 m
Data from the previous 72 hours. | See also: Recent months at Ferny Creek
Date/Time
EST
Tmp

°C
App
Tmp
°C
Dew
Point
°C
Rel
Hum
%
Delta-T

°C
Wind Press
QNH
hPa
Press
MSL
hPa
Rain
since
9 am
mm
Dir
 
Spd
km/h
Gust
km/h
Spd
kts
Gust
kts
21/02:00pm 12.0 9.9 6.7 70 2.6 ENE 7 17 4 9 1027.3 1028.0 0.0
21/01:30pm 11.7 10.0 7.6 76 2.0 NE 6 11 3 6 1027.5 1028.2 0.0
21/01:00pm 11.3 9.1 6.2 71 2.4 NE 7 15 4 8 1027.7 1028.4 0.0
21/12:30pm 11.3 8.7 6.2 71 2.5 NE 9 15 5 8 1028.0 1028.8 0.0
21/12:00pm 11.5 10.0 6.6 72 2.4 NNE 4 11 2 6 1028.3 1029.1 0.0
21/11:30am 11.6 9.5 6.5 71 2.5 NNE 7 13 4 7 1028.6 1029.4 0.0
21/11:00am 11.2 8.9 5.9 70 2.5 NNE 7 17 4 9 1028.8 1029.6 0.0
21/10:30am 10.8 8.1 5.8 71 2.4 N 9 19 5 10 1028.8 1029.6 0.0
21/10:00am 10.4 8.3 6.0 74 2.1 NE 6 7 3 4 1028.8 1029.6 0.0
21/09:30am 10.2 8.5 5.8 74 2.1 NNE 4 7 2 4 1028.7 1029.5 0.0
21/09:00am 10.3 8.8 5.1 70 2.4 NNE 2 6 1 3 1028.4 1029.2 0.0
21/08:30am 8.1 7.1 5.4 83 1.2 CALM 0 2 0 1 1028.3 1029.1 0.0
21/08:00am 6.7 5.5 4.7 87 0.9 CALM 0 6 0 3 1028.1 1028.9 0.0
21/07:30am 6.0 4.7 4.0 87 0.9 CALM 0 0 0 0 1027.7 1028.4 0.0
21/07:00am 5.7 4.4 3.9 88 0.8 CALM 0 0 0 0 1027.5 1028.2 0.0
21/06:30am 5.8 4.5 4.1 89 0.7 CALM 0 4 0 2 1027.3 1028.0 0.0
21/06:00am 5.3 3.2 4.0 91 0.6 WNW 4 7 2 4 1026.9 1027.7 0.0
21/05:30am 4.8 3.5 3.9 94 0.4 CALM 0 4 0 2 1026.8 1027.6 0.0
21/05:00am 4.7 2.2 3.8 94 0.4 NW 6 7 3 4 1026.7 1027.5 0.0
21/04:30am 4.5 2.0 3.6 94 0.4 NW 6 7 3 4 1026.6 1027.4 0.0
21/04:00am 4.8 3.0 3.5 91 0.6 NE 2 4 1 2 1026.5 1027.3 0.0
21/03:30am 5.0 2.8 3.5 90 0.6 ENE 4 7 2 4 1026.3 1027.1 0.0
21/03:00am 5.0 2.5 3.7 91 0.6 E 6 9 3 5 1026.3 1027.1 0.0
21/02:30am 5.2 2.8 4.3 94 0.4 E 6 9 3 5 1026.5 1027.3 0.0
21/02:00am 5.5 3.2 4.6 94 0.4 ESE 6 9 3 5 1026.6 1027.4 0.0
21/01:30am 5.3 2.9 4.1 92 0.5 ESE 6 9 3 5 1026.6 1027.4 0.0
21/01:00am 5.3 2.8 3.8 90 0.6 ESE 6 11 3 6 1026.6 1027.4 0.0
21/12:30am 5.3 3.2 4.1 92 0.5 ESE 4 7 2 4 1026.8 1027.6 0.0
21/12:00am 5.5 3.1 4.5 93 0.4 ESE 6 11 3 6 1026.8 1027.6 0.0
 
Date/Time
EST
Tmp

°C
App
Tmp
°C
Dew
Point
°C
Rel
Hum
%
Delta-T

°C
Wind Press
QNH
hPa
Press
MSL
hPa
Rain
since
9 am
mm
Dir
 
Spd
km/h
Gust
km/h
Spd
kts
Gust
kts
20/11:30pm 5.7 3.3 4.5 92 0.5 ESE 6 9 3 5 1027.0 1027.8 0.0
20/11:00pm 6.1 4.2 4.7 91 0.6 SE 4 9 2 5 1027.0 1027.8 0.0
20/10:30pm 6.2 4.2 4.4 88 0.8 SE 4 7 2 4 1027.2 1027.9 0.0
20/10:00pm 6.2 4.2 4.4 88 0.8 SE 4 7 2 4 1027.5 1028.2 0.0
20/09:30pm 6.2 3.7 4.0 86 1.0 SE 6 9 3 5 1027.5 1028.2 0.0
20/09:00pm 6.2 4.1 3.9 85 1.0 ESE 4 9 2 5 1027.4 1028.1 0.0
20/08:30pm 6.2 4.1 3.7 84 1.1 ESE 4 7 2 4 1027.4 1028.1 0.0
20/08:00pm 6.3 4.1 3.5 82 1.2 SE 4 7 2 4 1027.3 1028.0 0.0
20/07:30pm 6.6 4.9 3.8 82 1.2 ESE 2 7 1 4 1027.3 1028.0 0.0
20/07:00pm 6.7 4.6 4.0 83 1.2 ESE 4 7 2 4 1027.2 1027.9 0.0
20/06:30pm 6.8 4.7 4.1 83 1.2 SE 4 7 2 4 1026.9 1027.7 0.0
20/06:00pm 7.2 5.3 5.0 86 1.0 SE 4 6 2 3 1026.6 1027.4 0.0
20/05:30pm 7.4 5.5 4.7 83 1.2 S 4 9 2 5 1026.3 1027.1 0.0
20/05:00pm 7.9 6.0 5.0 82 1.3 SSE 4 6 2 3 1026.0 1026.7 0.0
20/04:30pm 8.2 6.6 4.4 77 1.7 S 2 7 1 4 1025.9 1026.6 0.0
20/04:00pm 8.5 6.6 4.7 77 1.7 SE 4 9 2 5 1025.8 1026.5 0.0
20/03:30pm 8.6 6.5 3.8 72 2.1 ESE 4 7 2 4 1025.7 1026.4 0.0
20/03:00pm 8.9 7.0 4.7 75 1.9 E 4 9 2 5 1025.6 1026.3 0.0
20/02:30pm 8.5 6.1 4.3 75 1.9 SE 6 11 3 6 1025.5 1026.2 0.0
20/02:00pm 8.5 6.0 3.9 73 2.0 SSE 6 9 3 5 1025.5 1026.2 0.0
20/01:30pm 8.1 6.0 3.8 74 1.9 SSE 4 9 2 5 1025.5 1026.2 0.0
20/01:00pm 8.5 6.7 5.4 81 1.4 SE 4 9 2 5 1025.7 1026.4 0.0
20/12:30pm 8.1 5.6 3.9 75 1.9 SE 6 11 3 6 1025.9 1026.6 0.0
20/12:00pm 8.3 5.6 3.8 73 2.0 SE 7 19 4 10 1026.1 1026.9 0.0
20/11:30am 8.1 5.4 3.8 74 1.9 E 7 15 4 8 1026.3 1027.1 0.0
20/11:00am 7.9 6.0 4.7 80 1.4 E 4 7 2 4 1026.4 1027.2 0.0
20/10:30am 7.7 5.2 3.6 75 1.8 E 6 7 3 4 1026.4 1027.2 0.0
20/10:00am 7.4 4.9 3.5 76 1.7 ENE 6 7 3 4 1026.3 1027.1 0.0
20/09:30am 6.8 4.5 2.7 75 1.8 SE 4 9 2 5 1026.2 1027.0 0.0
20/09:00am 6.3 3.6 2.6 77 1.6 ESE 6 7 3 4 1026.0 1026.7 0.0
20/08:30am 5.9 2.9 2.0 76 1.6 E 7 13 4 7 1025.8 1026.5 0.0
20/08:00am 5.8 3.0 2.1 77 1.5 ESE 6 9 3 5 1025.5 1026.2 0.0
20/07:30am 5.5 2.7 1.8 77 1.5 ESE 6 11 3 6 1025.2 1025.9 0.0
20/07:00am 5.2 2.3 1.5 77 1.5 ESE 6 11 3 6 1024.8 1025.6 0.0
20/06:30am 5.2 2.1 1.5 77 1.5 ESE 7 17 4 9 1024.5 1025.3 0.0
20/06:00am 5.0 2.1 1.3 77 1.5 ESE 6 15 3 8 1024.4 1025.2 0.0
20/05:30am 4.9 1.8 1.2 77 1.5 ESE 7 17 4 9 1024.2 1024.9 0.0
20/05:00am 4.5 1.6 1.2 79 1.3 ESE 6 13 3 7 1024.2 1024.9 0.0
20/04:30am 4.8 1.7 1.5 79 1.3 ESE 7 15 4 8 1024.3 1025.0 0.0
20/04:00am 4.8 1.9 1.7 80 1.3 ESE 6 13 3 7 1024.3 1025.0 0.0
20/03:30am 4.9 2.0 1.6 79 1.4 ESE 6 15 3 8 1024.2 1024.9 0.0
20/03:00am 4.8 2.0 2.0 82 1.2 ESE 6 7 3 4 1024.1 1024.8 0.0
20/02:30am 5.0 2.5 1.8 80 1.3 ESE 4 13 2 7 1024.3 1025.0 0.0
20/02:00am 5.1 3.1 2.3 82 1.2 ESE 2 7 1 4 1024.6 1025.4 0.0
20/01:30am 5.2 2.9 2.6 83 1.1 ESE 4 7 2 4 1024.6 1025.4 0.0
20/01:00am 5.4 3.1 2.9 84 1.1 ESE 4 9 2 5 1024.7 1025.5 0.0
20/12:30am 5.5 3.2 3.0 84 1.1 ESE 4 9 2 5 1024.7 1025.5 0.0
20/12:00am 5.5 3.3 3.2 85 1.0 ESE 4 7 2 4 1024.6 1025.4 0.0
 
Date/Time
EST
Tmp

°C
App
Tmp
°C
Dew
Point
°C
Rel
Hum
%
Delta-T

°C
Wind Press
QNH
hPa
Press
MSL
hPa
Rain
since
9 am
mm
Dir
 
Spd
km/h
Gust
km/h
Spd
kts
Gust
kts
19/11:30pm 5.6 3.4 3.1 84 1.1 ESE 4 7 2 4 1024.9 1025.7 0.0
19/11:00pm 5.7 3.5 3.2 84 1.1 ESE 4 9 2 5 1024.8 1025.6 0.0
19/10:30pm 5.7 3.5 3.2 84 1.1 ESE 4 7 2 4 1024.9 1025.7 0.0
19/10:00pm 5.7 3.9 3.4 85 1.0 ESE 2 6 1 3 1025.0 1025.8 0.0
19/09:30pm 5.7 3.9 3.5 86 1.0 SE 2 9 1 5 1024.9 1025.7 0.0
19/09:00pm 5.8 3.6 3.5 85 1.0 SSE 4 9 2 5 1024.7 1025.5 0.0
19/08:30pm 5.8 3.6 3.5 85 1.0 SE 4 9 2 5 1024.7 1025.5 0.0
19/08:00pm 6.0 3.8 3.5 84 1.1 SSE 4 9 2 5 1024.6 1025.4 0.0
19/07:30pm 6.0 3.5 3.5 84 1.1 SE 6 9 3 5 1024.5 1025.3 0.0
19/07:00pm 6.1 3.5 3.4 83 1.2 S 6 13 3 7 1024.3 1025.0 0.0
19/06:30pm 6.2 3.7 4.0 86 1.0 SE 6 15 3 8 1024.1 1024.8 0.0
19/06:00pm 6.4 4.0 4.2 86 1.0 S 6 11 3 6 1023.8 1024.5 0.0
19/05:30pm 6.5 4.5 4.5 87 0.9 SSW 4 9 2 5 1023.6 1024.3 0.0
19/05:00pm 6.8 4.9 4.8 87 0.9 S 4 9 2 5 1023.4 1024.1 0.0
19/04:30pm 6.9 4.6 4.7 86 1.0 SE 6 13 3 7 1023.4 1024.1 0.0
19/04:00pm 7.0 5.1 5.0 87 0.9 SE 4 11 2 6 1023.2 1023.9 0.0
19/03:30pm 7.0 4.7 5.0 87 0.9 SSE 6 13 3 7 1023.1 1023.8 0.0
19/03:00pm 7.3 5.1 5.4 88 0.9 SE 6 11 3 6 1023.1 1023.8 0.0
19/02:30pm 7.3 5.1 5.3 87 0.9 SE 6 11 3 6 1023.1 1023.8 0.0
19/02:00pm 7.6 5.4 5.2 85 1.1 SE 6 13 3 7 1022.9 1023.7 0.0
19/01:30pm 8.5 6.3 6.1 85 1.1 SSE 7 17 4 9 1022.9 1023.7 0.0
19/01:00pm 8.6 6.6 6.2 85 1.1 SE 6 13 3 7 1023.2 1023.9 0.0
19/12:30pm 8.4 6.4 6.9 90 0.7 SE 7 13 4 7 1023.4 1024.1 0.0
19/12:00pm 7.5 5.5 6.1 91 0.7 SSE 6 13 3 7 1023.7 1024.4 0.0
19/11:30am 7.7 5.7 6.2 90 0.7 SE 6 11 3 6 1024.0 1024.7 0.0
19/11:00am 8.1 6.1 6.4 89 0.8 SE 6 13 3 7 1024.1 1024.8 0.0
19/10:30am 7.9 5.3 5.9 87 0.9 ESE 9 19 5 10 1024.0 1024.7 0.0
19/10:00am 7.4 4.8 5.9 90 0.7 ESE 9 17 5 9 1023.9 1024.6 0.0
19/09:30am 7.3 4.5 6.9 97 0.2 SE 11 24 6 13 1023.8 1024.5 0.0
19/09:00am 6.5 3.9 6.2 98 0.1 ESE 9 17 5 9 1023.7 1024.4 1.4
19/08:30am 6.5 3.5 6.2 98 0.1 SE 11 26 6 14 1023.6 1024.3 1.4
19/08:00am 6.3 3.7 6.0 98 0.1 ESE 9 17 5 9 1023.3 1024.0 1.4
19/07:30am 6.3 3.7 6.0 98 0.1 SE 9 17 5 9 1023.1 1023.8 1.4
19/07:00am 6.3 3.7 6.0 98 0.1 SE 9 20 5 11 1022.9 1023.7 1.4
19/06:30am 6.4 4.2 6.1 98 0.1 ESE 7 19 4 10 1022.5 1023.2 1.4
19/06:00am 6.3 3.7 6.0 98 0.1 SE 9 19 5 10 1022.4 1023.1 1.4
19/05:30am 6.3 4.1 6.0 98 0.1 ESE 7 19 4 10 1022.2 1022.9 1.2
19/05:00am 6.4 3.8 6.1 98 0.1 ESE 9 17 5 9 1021.9 1022.6 1.2
19/04:30am 6.4 3.8 6.1 98 0.1 ESE 9 17 5 9 1021.8 1022.5 1.2
19/04:00am 6.5 3.9 6.2 98 0.1 ESE 9 22 5 12 1021.7 1022.4 1.2
19/03:30am 6.6 3.7 6.3 98 0.1 SE 11 28 6 15 1021.5 1022.2 1.2
19/03:00am 6.5 3.5 6.2 98 0.1 ESE 11 24 6 13 1021.6 1022.3 1.2
19/02:30am 6.8 4.3 6.5 98 0.1 ESE 9 20 5 11 1021.6 1022.3 1.2
19/02:00am 6.8 3.9 6.5 98 0.1 ESE 11 19 6 10 1021.6 1022.3 1.2
19/01:30am 6.9 4.0 6.6 98 0.1 ESE 11 20 6 11 1021.5 1022.2 1.2
19/01:00am 6.9 4.0 6.6 98 0.1 ESE 11 19 6 10 1021.6 1022.3 1.2
19/12:30am 6.9 4.4 6.6 98 0.1 ESE 9 19 5 10 1021.6 1022.3 1.2
19/12:00am 6.8 4.3 6.5 98 0.1 ESE 9 28 5 15 1021.6 1022.3 1.2
 
Date/Time
EST
Tmp

°C
App
Tmp
°C
Dew
Point
°C
Rel
Hum
%
Delta-T

°C
Wind Press
QNH
hPa
Press
MSL
hPa
Rain
since
9 am
mm
Dir
 
Spd
km/h
Gust
km/h
Spd
kts
Gust
kts
18/11:30pm 6.8 4.7 6.5 98 0.1 ESE 7 19 4 10 1021.7 1022.4 1.2
18/11:00pm 6.8 4.3 6.5 98 0.1 ESE 9 19 5 10 1021.7 1022.4 1.2
18/10:30pm 6.8 4.7 6.5 98 0.1 SE 7 17 4 9 1021.7 1022.4 1.2
18/10:00pm 6.8 4.7 6.5 98 0.1 SE 7 20 4 11 1021.6 1022.3 1.2
18/09:30pm 6.9 4.4 6.6 98 0.1 SE 9 17 5 9 1021.4 1022.1 1.2
18/09:00pm 6.8 4.3 6.5 98 0.1 SE 9 20 5 11 1021.2 1021.9 1.2
18/08:30pm 6.8 4.3 6.5 98 0.1 ESE 9 17 5 9 1021.1 1021.7 1.2
18/08:00pm 6.8 4.3 6.5 98 0.1 SE 9 24 5 13 1020.8 1021.5 1.0
18/07:30pm 6.9 4.4 6.6 98 0.1 ESE 9 20 5 11 1020.7 1021.4 1.0
18/07:00pm 6.9 4.4 6.6 98 0.1 ESE 9 24 5 13 1020.5 1021.2 1.0
18/06:30pm 6.9 4.0 6.5 97 0.2 SE 11 24 6 13 1020.3 1021.0 1.0
18/06:00pm 7.0 4.5 6.6 97 0.2 SE 9 19 5 10 1020.1 1020.8 1.0
18/05:30pm 7.0 4.1 6.6 97 0.2 SE 11 20 6 11 1019.9 1020.6 0.8
18/05:00pm 7.2 5.1 6.8 97 0.2 SE 7 15 4 8 1019.6 1020.3 0.8
18/04:30pm 7.2 5.3 6.8 97 0.2 SE 6 17 3 9 1019.4 1020.0 0.8
18/04:00pm 7.0 4.5 6.6 97 0.2 ESE 9 22 5 12 1019.4 1020.0 0.8
18/03:30pm 7.1 4.6 6.7 97 0.2 SE 9 19 5 10 1019.3 1019.9 0.6
18/03:00pm 7.2 4.7 6.5 95 0.3 ESE 9 17 5 9 1019.2 1019.8 0.4
18/02:30pm 7.4 5.2 6.2 92 0.6 SE 7 24 4 13 1019.0 1019.6 0.2

Latest Capital City Observations: Canberra | Sydney | Melbourne | Brisbane | Adelaide | Perth | Hobart | Darwin

Other Formats:

Comma delimited format used in spreadsheet applications
http://www.bom.gov.au/fwo/IDV60901/IDV60901.94872.axf

JavaScript Object Notation format (JSON) in row-major order
http://www.bom.gov.au/fwo/IDV60901/IDV60901.94872.json